• Join FlightAware (Why Join?)
  • Login
  • US Flag 
11:28AM EDT


 

Airport Tracker/Info


-or-


 

Live Flight TrackerFlight Track Log ✈ SFH77 ✈ 11-May-2013 ✈ KFOK - KCHS

Flight Track Log - Related Links

Times and Time Zones

All times are in EDT time to prevent confusion due to time zone crossing. See the SFH77 flight status page for this flight to view local times or setup timezone preferences in your user account.

Time Position Orientation Groundspeed Altitude Reporting Facility
EDT Latitude Longitude Course Direction KTS MPH feet Rate Location/Type
02:29PM 40.8167 -72.6167 113° Southeast 174 200 1,300  Level New York TRACON
02:29PM 40.8103 -72.5964 113° Southeast 195 224 2,000 2,160 Climbing Boston Center
02:30PM 40.8250 -72.5278 74° East 195 224 4,100 1,800 Climbing Boston Center
02:31PM 40.7936 -72.4811 132° Southeast 170 196 5,600 1,620 Climbing Boston Center
02:32PM 40.7478 -72.5114 207° Southwest 122 140 7,400 1,620 Climbing Boston Center
02:34PM 40.7103 -72.5578 223° Southwest 135 155 9,200 1,680 Climbing Boston Center
02:35PM 40.6747 -72.6181 232° Southwest 165 190 11,200 1,800 Climbing Boston Center
02:36PM 40.6558 -72.6781 247° West 170 196 12,900 1,620 Climbing Boston Center
02:37PM 40.6350 -72.7356 244° Southwest 175 201 14,500 1,380 Climbing Boston Center
02:38PM 40.5994 -72.7764 221° Southwest 175 201 15,700 1,200 Climbing Boston Center
02:39PM 40.5597 -72.8197 220° Southwest 175 201 16,900 1,080 Climbing Boston Center
02:40PM 40.5200 -72.8633 220° Southwest 188 216 17,900 960 Climbing Boston Center
02:41PM 40.4781 -72.9094 220° Southwest 193 222 18,900 960 Climbing Boston Center
02:42PM 40.4383 -72.9444 214° Southwest 193 222 19,900 1,020 Climbing Boston Center
02:43PM 40.4025 -72.9933 226° Southwest 193 222 21,000 900 Climbing Boston Center
02:44PM 40.3567 -73.0364 216° Southwest 199 229 21,700 660 Climbing Boston Center
02:45PM 40.3125 -73.0906 223° Southwest 205 236 22,400 660 Climbing Boston Center
02:46PM 40.2683 -73.1417 221° Southwest 210 242 23,100 900 Climbing Boston Center
02:47PM 40.2222 -73.1928 220° Southwest 215 247 24,200 900 Climbing Boston Center
02:48PM 40.1656 -73.2547 220° Southwest 221 254 24,900 660 Climbing Boston Center
02:49PM 40.0964 -73.3322 221° Southwest 229 264 25,900 420 Climbing Washington Center
02:50PM 40.0411 -73.3911 219° Southwest 235 270 26,000  Climbing Washington Center
02:51PM 39.9819 -73.4525 218° Southwest 254 292 26,000  Level Washington Center
02:52PM 39.9267 -73.5136 220° Southwest 259 298 26,000  Level Washington Center
02:53PM 39.8714 -73.5719 219° Southwest 259 298 26,000  Level Washington Center
02:54PM 39.8161 -73.6250 216° Southwest 259 298 26,000  Level Washington Center
02:55PM 39.7586 -73.6806 217° Southwest 259 298 26,000  Level Washington Center
02:56PM 39.7011 -73.7361 217° Southwest 259 298 26,000  Level Washington Center
02:57PM 39.6458 -73.7886 216° Southwest 259 298 26,000  Level Washington Center
02:58PM 39.5881 -73.8439 216° Southwest 265 305 26,000  Level Washington Center
02:59PM 39.5306 -73.8939 214° Southwest 265 305 26,000  Level Washington Center
03:00PM 39.4708 -73.9489 215° Southwest 265 305 26,000  Level Washington Center
03:01PM 39.4153 -74.0039 217° Southwest 265 305 26,000  Level Washington Center
03:02PM 39.3578 -74.0561 215° Southwest 265 305 26,000  Level Washington Center
03:03PM 39.3022 -74.1111 217° Southwest 265 305 26,000  Level Washington Center
03:04PM 39.2444 -74.1658 216° Southwest 265 305 26,000  Level Washington Center
03:05PM 39.1847 -74.2206 215° Southwest 265 305 26,000  Level Washington Center
03:06PM 39.1331 -74.2697 216° Southwest 265 305 26,000  Level Washington Center
03:07PM 39.0733 -74.3269 217° Southwest 270 311 26,000  Level Washington Center
03:08PM 39.0133 -74.3842 217° Southwest 270 311 26,000  Level Washington Center
03:09PM 38.9556 -74.4358 215° Southwest 270 311 26,000  Level Washington Center
03:10PM 38.8956 -74.4900 215° Southwest 270 311 26,000  Level Washington Center
03:11PM 38.8378 -74.5442 216° Southwest 270 311 26,000  Level Washington Center
03:12PM 38.7778 -74.6011 217° Southwest 270 311 26,000  Level Washington Center
03:13PM 38.7197 -74.6525 215° Southwest 265 305 26,000  Level Washington Center
03:14PM 38.6597 -74.7036 214° Southwest 265 305 26,000  Level Washington Center
03:15PM 38.5997 -74.7603 216° Southwest 265 305 26,000  Level Washington Center
03:16PM 38.5439 -74.8139 217° Southwest 271 312 26,000  Level Washington Center
03:17PM 38.4836 -74.8703 216° Southwest 266 306 26,000  Level Washington Center
03:18PM 38.4236 -74.9239 215° Southwest 271 312 26,000  Level Washington Center
03:19PM 38.3633 -74.9800 216° Southwest 271 312 26,000  Level Washington Center
03:20PM 38.3031 -75.0389 217° Southwest 271 312 26,000  Level Washington Center
03:21PM 38.2431 -75.0894 213° Southwest 271 312 26,000  Level Washington Center
03:22PM 38.1847 -75.1481 218° Southwest 271 312 26,000  Level Washington Center
03:23PM 38.1267 -75.2011 216° Southwest 271 312 26,000  Level Washington Center
03:24PM 38.0664 -75.2542 215° Southwest 271 312 26,000  Level Washington Center
03:25PM 38.0058 -75.3072 215° Southwest 266 306 26,000  Level Washington Center
03:26PM 37.9456 -75.3628 216° Southwest 266 306 26,000  Level Washington Center
03:27PM 37.8853 -75.4128 213° Southwest 266 306 26,000  Level Washington Center
03:28PM 37.8247 -75.4683 216° Southwest 266 306 26,000  Level Washington Center
03:29PM 37.7644 -75.5183 213° Southwest 266 306 26,000  Level Washington Center
03:30PM 37.7039 -75.5733 216° Southwest 271 312 26,000  Level Washington Center
03:31PM 37.6456 -75.6233 214° Southwest 271 312 26,000  Level Washington Center
03:32PM 37.5850 -75.6783 216° Southwest 271 312 26,000  Level Washington Center
03:33PM 37.5222 -75.7358 216° Southwest 271 312 26,000  Level Washington Center
03:34PM 37.4575 -75.7906 214° Southwest 271 312 26,000  Level Washington Center
03:35PM 37.3950 -75.8456 215° Southwest 276 318 26,000  Level Washington Center
03:36PM 37.3303 -75.9025 215° Southwest 282 325 26,000  Level Washington Center
03:37PM 37.2653 -75.9572 214° Southwest 282 325 26,000  Level Washington Center
03:38PM 37.2025 -76.0142 216° Southwest 282 325 26,000  Level Washington Center
03:39PM 37.1314 -76.0764 215° Southwest 282 325 26,000  Level Washington Center
03:40PM 37.0644 -76.1333 214° Southwest 282 325 26,000  Level Washington Center
03:41PM 36.9953 -76.1875 212° Southwest 288 331 26,000  Level Washington Center
03:42PM 36.9303 -76.2442 215° Southwest 288 331 26,000 -420 Level Washington Center
03:43PM 36.8653 -76.3033 216° Southwest 288 331 25,200 -660 Descending Washington Center
03:44PM 36.7961 -76.3597 213° Southwest 288 331 24,700 -480 Descending Washington Center
03:45PM 36.7289 -76.4211 216° Southwest 293 337 24,300 -360 Descending Washington Center
03:46PM 36.6619 -76.4775 214° Southwest 298 343 24,000 -180 Descending Washington Center
03:47PM 36.5989 -76.5336 216° Southwest 293 337 24,000  Level Washington Center
03:48PM 36.5358 -76.5847 213° Southwest 293 337 24,000  Level Washington Center
03:49PM 36.4728 -76.6381 214° Southwest 287 330 24,000  Level Washington Center
03:50PM 36.4097 -76.6914 214° Southwest 282 325 24,000  Level Washington Center
03:51PM 36.3444 -76.7447 213° Southwest 282 325 24,000  Level Washington Center
03:52PM 36.2856 -76.7981 216° Southwest 282 325 24,000  Level Washington Center
03:53PM 36.2225 -76.8511 214° Southwest 282 325 24,000  Level Washington Center
03:54PM 36.1614 -76.8989 212° Southwest 277 319 24,000  Level Washington Center
03:55PM 36.0983 -76.9519 214° Southwest 272 313 24,000  Level Washington Center
03:56PM 36.0372 -77.0047 215° Southwest 272 313 24,000  Level Washington Center
03:57PM 35.9739 -77.0550 213° Southwest 272 313 24,000  Level Washington Center
03:58PM 35.9128 -77.1050 214° Southwest 272 313 24,000  Level Washington Center
03:59PM 35.8536 -77.1631 219° Southwest 272 313 24,000  Level Washington Center
04:00PM 35.7842 -77.2178 213° Southwest 277 319 24,000  Level Washington Center
04:01PM 35.7167 -77.2728 213° Southwest 287 330 24,000  Level Washington Center
04:02PM 35.6489 -77.3275 213° Southwest 287 330 24,000  Level Washington Center
04:03PM 35.5856 -77.3800 214° Southwest 287 330 24,000  Level Washington Center
04:04PM 35.5222 -77.4347 215° Southwest 282 325 24,000  Level Washington Center
04:05PM 35.4567 -77.4867 213° Southwest 282 325 24,000  Level Washington Center
04:06PM 35.3911 -77.5411 214° Southwest 282 325 24,000  Level Washington Center
04:07PM 35.3275 -77.6008 217° Southwest 287 330 24,000  Level Washington Center
04:08PM 35.2681 -77.6653 222° Southwest 287 330 24,000  Level Washington Center
04:09PM 35.2106 -77.7250 220° Southwest 282 325 24,000  Level Washington Center
04:10PM 35.1533 -77.7869 222° Southwest 282 325 24,000  Level Washington Center
04:11PM 35.0894 -77.8486 218° Southwest 287 330 24,000 -60 Level Washington Center
04:12PM 35.0256 -77.9128 219° Southwest 287 330 23,900 -300 Descending Washington Center
04:13PM 34.9681 -77.9769 222° Southwest 292 336 23,400 -600 Descending Washington Center
04:14PM 34.9083 -78.0386 220° Southwest 292 336 22,800 -600 Descending Washington Center
04:15PM 34.8486 -78.1000 220° Southwest 287 330 22,300 -540 Descending Washington Center
04:16PM 34.7975 -78.1567 222° Southwest 287 330 21,800 -600 Descending Washington Center
04:17PM 34.7397 -78.2156 220° Southwest 287 330 21,200 -480 Descending Washington Center
04:18PM 34.6822 -78.2742 220° Southwest 287 330 20,900 -360 Descending Washington Center
04:19PM 34.6203 -78.3378 220° Southwest 287 330 20,500 -420 Descending Washington Center
04:20PM 34.5606 -78.3939 218° Southwest 287 330 20,100 -360 Descending Washington Center
04:21PM 34.5047 -78.4525 221° Southwest 287 330 19,800 -360 Descending Washington Center
04:22PM 34.4728 -78.4853 220° Southwest 285 328 19,600 -360 Descending Jacksonville Center
04:23PM 34.4164 -78.5408 219° Southwest 273 314 19,300 -240 Descending Jacksonville Center
04:24PM 34.3581 -78.5992 220° Southwest 268 308 19,200 -180 Descending Jacksonville Center
04:25PM 34.3014 -78.6572 220° Southwest 268 308 19,000 -120 Descending Jacksonville Center
04:26PM 34.2472 -78.7228 225° Southwest 273 314 19,000 -60 Level Jacksonville Center
04:27PM 34.1889 -78.7856 222° Southwest 281 323 18,900 -600 Descending Jacksonville Center
04:28PM 34.1325 -78.8486 223° Southwest 281 323 17,900 -900 Descending Jacksonville Center
04:29PM 34.0761 -78.9114 223° Southwest 281 323 17,200 -600 Descending Jacksonville Center
04:30PM 34.0217 -78.9739 224° Southwest 281 323 16,700 -540 Descending Jacksonville Center
04:31PM 33.9694 -79.0364 225° Southwest 275 316 16,200 -540 Descending Jacksonville Center
04:32PM 33.9169 -79.0964 223° Southwest 275 316 15,700 -540 Descending Jacksonville Center
04:33PM 33.8625 -79.1536 221° Southwest 270 311 15,200 -600 Descending Jacksonville Center
04:34PM 33.8119 -79.2133 224° Southwest 264 304 14,600 -600 Descending Jacksonville Center
04:35PM 33.7550 -79.2631 216° Southwest 264 304 14,100 -420 Descending Jacksonville Center
04:36PM 33.6958 -79.3081 212° Southwest 264 304 13,800 -480 Descending Jacksonville Center
04:37PM 33.6325 -79.3556 212° Southwest 264 304 13,200 -720 Descending Jacksonville Center
04:38PM 33.5689 -79.4003 210° Southwest 269 310 12,400 -720 Descending Jacksonville Center
04:39PM 33.5078 -79.4475 213° Southwest 269 310 11,800 -540 Descending Jacksonville Center
04:40PM 33.4503 -79.4897 211° Southwest 269 310 11,400 -420 Descending Jacksonville Center
04:41PM 33.4017 -79.5389 220° Southwest 252 290 11,000 -840 Descending Jacksonville Center
04:42PM 33.3531 -79.5928 223° Southwest 242 278 9,800 -1,200 Descending Jacksonville Center
04:43PM 33.3022 -79.6519 224° Southwest 247 284 8,600 -1,260 Descending Jacksonville Center
04:44PM 33.2494 -79.7058 221° Southwest 252 290 7,300 -1,320 Descending Jacksonville Center
04:45PM 33.1986 -79.7650 224° Southwest 252 290 6,000 -1,260 Descending Jacksonville Center
04:46PM 33.1500 -79.8161 221° Southwest 252 290 4,800 -1,140 Descending Jacksonville Center
04:47PM 33.1031 -79.8675 223° Southwest 247 284 3,800 -1,020 Descending Jacksonville Center
04:48PM 33.0542 -79.9161 220° Southwest 241 277 2,800 -1,020 Descending Jacksonville Center
04:50PM 32.9389 -80.0084 220° Southwest  Level Estimated
04:57PM 32.8986 -80.0405 348° North  Level Estimated
04:58PM 32.8986 -80.0405 348° North  Level Estimated
04:59PM 32.8986 -80.0405 348° North  Level Estimated
05:00PM 32.8986 -80.0405 348° North  Level Estimated